Detroit, Michigan
Traffic Map
Current Weather Conditions
Detroit, Michigan
Scattered Clouds
Scattered Clouds
72°
Feels Like: 72°
Wind Chill: 72° Ceiling: Unl
Heat Index: 72° Visibility: 12mi
Dew Point: 70° Wind: 6mph
Humidity: 94% Direction: 330° (NNW)
Pressure: 29.92in Gusts: 0mph
Raw Report DataCYQG 180600Z 33005KT 12SM SCT180 22/21 A2992 RMK AC3 SLP131DENSITY ALT 1600FT
Traffic Incident Summary
Active as of:
Severity:
Category:
InformationThere was an issue retrieving the traffic information for this location. Please try a different location or try again shortly.
Advertisements